Shelton, CT (06484)

12:25 AM EDT on August 31, 2016 (GMT -0400)
Cedarwood | | Change Station
Active Advisory: Air Quality Alert

Elev 509 ft 41.32 °N, 73.14 °W | Updated 7 minutes ago

Clear
Clear
67.8 °F
Feels Like 67.8 °F
N
0.0
Wind Variable Wind from SSW

Today
High -- | Low -- °F
--% Chance of Precip.
Yesterday
High -- | Low -- °F
Precip. -- in
Pressure 30.05 in
Visibility 10.0 miles
Clouds Clear
Dew Point 65 °F
Humidity 90%
Rainfall 0.00 in
Snow Depth Not available.
6:18 AM 7:26 PM
Waning Crescent, 2% visible
METAR KBDR 310352Z 23010KT 10SM CLR 24/19 A3005 RMK AO2 SLP176 T02440194
Pressure 30.05 in
Visibility 10.0 miles
Clouds Clear
Dew Point 65 °F
Humidity 90%
Rainfall 0.00 in
Snow Depth Not available.
6:18 AM 7:26 PM
Waning Crescent, 2% visible
METAR KBDR 310352Z 23010KT 10SM CLR 24/19 A3005 RMK AO2 SLP176 T02440194

10-Day Weather Forecast

Almanac

Astronomy

Aug. 31, 2016 Rise Set
Actual Time
Civil Twilight
Nautical Twilight
Astronomical Twilight
Moon
Length of Visible Light
Length of Day
Tomorrow will be .
, % of the Moon is Illuminated

Today's Extremes

State Highs State Lows

Community

WunderPhotos

Upload Photos

1,936,035 photos uploaded!

WunderBlog® & News

Nearby

Air Quality

  Air Quality AQ Index Pollutant
Not available.

Snow Depth

Station Depth Elevation

Earthquake Activity

City Distance Mag. Time & Date
Minimum magnitude displayed is 2.5.

Coastal Water Temperatures

Place Temperature

Stations

Nearby Weather Stations

Station Location Temp. Windchill Dew Point Humidity Wind Precip. Elev Updated Type
                   

Watches & Warnings

Air Quality Alert
Issued: 3:50 PM EDT Aug. 30, 2016 – National Weather Service

... Air quality alert is in effect from 11 am Wednesday until 11 PM
Wednesday...

The Connecticut department of energy and
environmental protection has issued an air quality action day for
the following counties...

Fairfield... Middlesex and New Haven.

An air quality action day means that ozone within the region may
approach or exceed unhealthy standards. For additional information...
please visit the Connecticut department of environmental protection
web site at http://www.CT.Gov/deep/aqi




Maloit


350 PM EDT Tue Aug 30 2016

... Air quality alert is in effect from 11 am Wednesday until 11 PM
Wednesday...

The Connecticut department of energy and
environmental protection has issued an air quality action day for
the following counties...

Fairfield... Middlesex and New Haven.

An air quality action day means that ozone within the region may
approach or exceed unhealthy standards. For additional information...
please visit the Connecticut department of environmental protection
web site at http://www.CT.Gov/deep/aqi




Maloit